createdAt,value
2023-05-07T00:00:07.940Z,2.33
2023-05-07T00:02:35.915Z,2.80
2023-05-07T00:05:06.355Z,3.07
2023-05-07T00:07:36.802Z,3.00
2023-05-07T00:10:05.283Z,3.00
2023-05-07T00:12:34.683Z,2.97
2023-05-07T00:15:04.197Z,3.13
2023-05-07T00:17:32.056Z,2.73
2023-05-07T00:19:59.837Z,2.93
2023-05-07T00:22:31.078Z,2.47
2023-05-07T00:24:58.807Z,3.20
2023-05-07T00:27:27.158Z,2.23
2023-05-07T00:29:54.863Z,2.57
2023-05-07T00:32:22.654Z,2.63
2023-05-07T00:34:51.841Z,3.17
2023-05-07T00:37:19.583Z,2.57
2023-05-07T00:39:48.672Z,2.30
2023-05-07T00:42:17.111Z,2.10
2023-05-07T00:44:44.848Z,2.60
2023-05-07T00:47:13.208Z,2.37
2023-05-07T00:49:43.376Z,2.60
2023-05-07T00:52:13.383Z,2.60
2023-05-07T00:54:43.082Z,2.33
2023-05-07T00:57:13.051Z,2.33
2023-05-07T00:59:41.808Z,2.47
2023-05-07T01:02:10.206Z,2.37
2023-05-07T01:04:38.153Z,2.20
2023-05-07T01:07:08.020Z,2.23
2023-05-07T01:09:36.996Z,2.10
2023-05-07T01:12:06.119Z,2.30
2023-05-07T01:14:36.153Z,2.17
2023-05-07T01:17:03.954Z,2.00
2023-05-07T01:19:32.416Z,2.27
2023-05-07T01:22:05.232Z,2.70
2023-05-07T01:24:36.897Z,2.13
2023-05-07T01:27:05.312Z,2.60
2023-05-07T01:29:33.168Z,2.30
2023-05-07T01:32:02.107Z,2.40
2023-05-07T01:34:34.470Z,2.20
2023-05-07T01:37:03.776Z,2.00
2023-05-07T01:39:32.697Z,2.00
2023-05-07T01:42:01.910Z,2.03
2023-05-07T01:44:30.384Z,1.90
2023-05-07T01:46:59.560Z,2.47
2023-05-07T01:49:28.007Z,2.20
2023-05-07T01:51:56.700Z,2.00
2023-05-07T01:54:28.523Z,2.37
2023-05-07T01:56:57.322Z,1.77
2023-05-07T01:59:26.409Z,2.20
2023-05-07T02:01:54.210Z,2.27
2023-05-07T02:04:22.170Z,1.93
2023-05-07T02:06:49.957Z,1.80
2023-05-07T02:09:18.601Z,2.60
2023-05-07T02:11:46.648Z,2.40
2023-05-07T02:14:14.369Z,2.03
2023-05-07T02:16:43.566Z,1.87
2023-05-07T02:19:11.374Z,2.30
2023-05-07T02:21:39.092Z,2.40
2023-05-07T02:24:07.329Z,2.00
2023-05-07T02:26:35.164Z,1.70
2023-05-07T02:29:03.442Z,1.80
2023-05-07T02:31:31.503Z,2.40
2023-05-07T02:34:00.526Z,1.80
2023-05-07T02:36:28.517Z,1.90
2023-05-07T02:38:56.987Z,2.57
2023-05-07T02:41:24.714Z,2.27
2023-05-07T02:43:52.408Z,2.30
2023-05-07T02:46:20.176Z,2.33
2023-05-07T02:48:48.007Z,2.37
2023-05-07T02:51:17.088Z,2.70
2023-05-07T02:53:44.806Z,1.80
2023-05-07T02:56:12.839Z,2.30
2023-05-07T02:58:40.885Z,2.83
2023-05-07T03:01:08.812Z,2.27
2023-05-07T03:03:37.163Z,2.07
2023-05-07T03:06:05.658Z,2.67
2023-05-07T03:08:34.693Z,2.00
2023-05-07T03:11:02.476Z,2.87
2023-05-07T03:13:30.211Z,2.13
2023-05-07T03:15:57.951Z,2.87
2023-05-07T03:18:26.095Z,2.40
2023-05-07T03:20:54.016Z,2.30
2023-05-07T03:23:23.238Z,2.20
2023-05-07T03:25:53.864Z,2.10
2023-05-07T03:28:21.905Z,2.30
2023-05-07T03:30:49.727Z,2.50
2023-05-07T03:33:17.493Z,2.30
2023-05-07T03:35:45.223Z,2.80
2023-05-07T03:38:13.200Z,2.50
2023-05-07T03:40:40.999Z,2.60
2023-05-07T03:43:10.085Z,2.80
2023-05-07T03:45:37.799Z,2.93
2023-05-07T03:48:06.359Z,2.70
2023-05-07T03:50:34.219Z,2.37
2023-05-07T03:53:01.939Z,2.37
2023-05-07T03:55:29.820Z,2.20
2023-05-07T03:57:57.597Z,2.57
2023-05-07T04:00:26.828Z,2.10
2023-05-07T04:02:54.565Z,2.30
2023-05-07T04:05:22.368Z,2.90
2023-05-07T04:07:50.052Z,3.00
2023-05-07T04:10:17.798Z,2.43
2023-05-07T04:12:45.518Z,2.83
2023-05-07T04:15:13.349Z,2.33
2023-05-07T04:17:42.571Z,3.40
2023-05-07T04:20:12.325Z,2.73
2023-05-07T04:22:40.385Z,2.73
2023-05-07T04:25:10.033Z,2.93
2023-05-07T04:27:38.625Z,2.17
2023-05-07T04:30:07.626Z,3.17
2023-05-07T04:32:35.378Z,2.20
2023-05-07T04:35:04.490Z,2.73
2023-05-07T04:37:34.039Z,2.33
2023-05-07T04:40:03.786Z,2.60
2023-05-07T04:42:32.184Z,2.93
2023-05-07T04:44:59.934Z,2.60
2023-05-07T04:47:27.639Z,2.83
2023-05-07T04:49:55.448Z,2.37
2023-05-07T04:52:26.779Z,2.47
2023-05-07T04:54:55.000Z,2.57
2023-05-07T04:57:22.715Z,2.57
2023-05-07T04:59:50.458Z,2.80
2023-05-07T05:02:20.607Z,2.13
2023-05-07T05:04:48.577Z,3.50
2023-05-07T05:07:16.264Z,2.53
2023-05-07T05:09:45.916Z,3.20
2023-05-07T05:12:13.768Z,2.13
2023-05-07T05:14:41.588Z,2.53
2023-05-07T05:17:09.347Z,2.37
2023-05-07T05:19:37.043Z,2.50
2023-05-07T05:22:04.850Z,2.90
2023-05-07T05:24:32.587Z,2.97
2023-05-07T05:27:02.938Z,2.70
2023-05-07T05:29:31.551Z,2.93
2023-05-07T05:31:59.535Z,2.77
2023-05-07T05:34:27.369Z,2.40
2023-05-07T05:36:55.107Z,3.03
2023-05-07T05:39:24.141Z,3.17
2023-05-07T05:41:54.120Z,2.73
2023-05-07T05:44:23.321Z,3.03
2023-05-07T05:46:51.354Z,3.00
2023-05-07T05:49:19.101Z,2.40
2023-05-07T05:51:47.158Z,3.13
2023-05-07T05:54:14.896Z,2.97
2023-05-07T05:56:43.502Z,3.10
2023-05-07T05:59:11.303Z,2.43
2023-05-07T06:01:40.854Z,2.73
2023-05-07T06:04:08.619Z,2.97
2023-05-07T06:06:36.724Z,2.63
2023-05-07T06:09:05.060Z,2.63
2023-05-07T06:11:33.732Z,2.73
2023-05-07T06:14:01.425Z,3.30
2023-05-07T06:16:29.255Z,2.93
2023-05-07T06:18:58.346Z,2.97
2023-05-07T06:21:26.392Z,3.00
2023-05-07T06:23:55.828Z,2.63
2023-05-07T06:26:23.532Z,2.83
2023-05-07T06:28:51.284Z,2.63
2023-05-07T06:31:22.006Z,2.60
2023-05-07T06:33:50.819Z,2.17
2023-05-07T06:36:19.837Z,2.13
2023-05-07T06:38:47.601Z,2.50
2023-05-07T06:41:15.323Z,2.30
2023-05-07T06:43:43.081Z,2.77
2023-05-07T06:46:11.090Z,2.47
2023-05-07T06:48:38.855Z,2.63
2023-05-07T06:51:07.008Z,2.50
2023-05-07T06:53:37.043Z,2.27
2023-05-07T06:56:04.876Z,2.50
2023-05-07T06:58:32.583Z,2.57
2023-05-07T07:01:00.407Z,2.50
2023-05-07T07:03:28.186Z,3.00
2023-05-07T07:05:56.155Z,3.37
2023-05-07T07:08:24.628Z,2.20
2023-05-07T07:10:53.673Z,2.70
2023-05-07T07:13:21.757Z,2.77
2023-05-07T07:15:49.716Z,2.97
2023-05-07T07:18:17.437Z,2.40
2023-05-07T07:20:46.291Z,2.60
2023-05-07T07:23:14.037Z,2.50
2023-05-07T07:25:41.977Z,2.43
2023-05-07T07:28:11.569Z,2.30
2023-05-07T07:30:39.787Z,2.30
2023-05-07T07:33:07.652Z,2.70
2023-05-07T07:35:35.425Z,2.10
2023-05-07T07:38:03.457Z,2.63
2023-05-07T07:40:31.393Z,2.10
2023-05-07T07:42:59.751Z,2.53
2023-05-07T07:45:28.914Z,2.70
2023-05-07T07:47:56.804Z,2.30
2023-05-07T07:50:36.117Z,2.77
2023-05-07T07:53:11.872Z,1.70
2023-05-07T07:55:41.086Z,2.53
2023-05-07T07:58:09.314Z,3.20
2023-05-07T08:00:38.474Z,2.17
2023-05-07T08:03:07.826Z,2.57
2023-05-07T08:05:36.339Z,1.97
2023-05-07T08:08:04.274Z,1.97
2023-05-07T08:10:35.912Z,2.10
2023-05-07T08:13:04.832Z,2.23
2023-05-07T08:15:32.927Z,2.20
2023-05-07T08:18:03.310Z,2.53
2023-05-07T08:20:31.706Z,2.07
2023-05-07T08:22:59.605Z,2.40
2023-05-07T08:25:27.411Z,2.33
2023-05-07T08:27:55.228Z,2.20
2023-05-07T08:30:23.771Z,2.10
2023-05-07T08:32:51.870Z,2.50
2023-05-07T08:35:21.104Z,2.27
2023-05-07T08:37:49.033Z,2.10
2023-05-07T08:40:17.502Z,2.57
2023-05-07T08:42:46.588Z,2.87
2023-05-07T08:45:15.146Z,2.33
2023-05-07T08:47:47.137Z,1.80
2023-05-07T08:50:15.596Z,2.20
2023-05-07T08:52:44.744Z,2.47
2023-05-07T08:55:13.000Z,2.95
2023-05-07T08:57:41.135Z,2.43
2023-05-07T09:00:12.702Z,2.40
2023-05-07T09:02:40.791Z,2.37
2023-05-07T09:05:10.021Z,2.17
2023-05-07T09:07:37.983Z,1.87
2023-05-07T09:10:08.858Z,2.13
2023-05-07T09:12:37.409Z,3.27
2023-05-07T09:15:06.177Z,2.10
2023-05-07T09:17:34.054Z,2.63
2023-05-07T09:20:05.805Z,2.07
2023-05-07T09:22:34.257Z,2.17
2023-05-07T09:25:03.941Z,2.17
2023-05-07T09:27:33.640Z,2.47
2023-05-07T09:30:01.398Z,2.47
2023-05-07T09:32:29.307Z,2.20
2023-05-07T09:34:57.288Z,2.60
2023-05-07T09:37:29.014Z,2.47
2023-05-07T09:39:56.989Z,2.30
2023-05-07T09:42:28.036Z,2.63
2023-05-07T09:44:57.321Z,2.80
2023-05-07T09:47:26.801Z,3.07
2023-05-07T09:49:58.871Z,2.30
2023-05-07T09:52:29.676Z,2.00
2023-05-07T09:55:00.252Z,2.20
2023-05-07T09:57:29.098Z,2.47
2023-05-07T09:59:59.813Z,2.50
2023-05-07T10:02:31.945Z,2.83
2023-05-07T10:05:01.468Z,2.90
2023-05-07T10:07:29.960Z,2.60
2023-05-07T10:10:00.915Z,2.23
2023-05-07T10:12:29.512Z,2.50
2023-05-07T10:14:58.704Z,2.53
2023-05-07T10:17:26.761Z,2.43
2023-05-07T10:19:55.925Z,2.83
2023-05-07T10:22:24.150Z,2.10
2023-05-07T10:24:54.384Z,2.17
2023-05-07T10:27:24.182Z,2.13
2023-05-07T10:30:02.763Z,2.93
2023-05-07T10:32:40.929Z,3.00
2023-05-07T10:35:13.270Z,2.63
2023-05-07T10:37:41.708Z,2.50
2023-05-07T10:40:11.864Z,2.80
2023-05-07T10:42:39.763Z,3.00
2023-05-07T10:45:17.937Z,3.37
2023-05-07T10:48:28.657Z,2.80
2023-05-07T10:51:22.318Z,2.40
2023-05-07T10:53:50.820Z,2.60
2023-05-07T10:56:28.997Z,2.50
2023-05-07T10:58:56.961Z,2.53
2023-05-07T11:01:56.194Z,2.30
2023-05-07T11:04:27.677Z,2.77
2023-05-07T11:07:23.417Z,3.07
2023-05-07T11:10:11.904Z,2.73
2023-05-07T11:12:53.430Z,2.80
2023-05-07T11:15:54.922Z,2.77
2023-05-07T11:18:23.974Z,2.57
2023-05-07T11:21:00.647Z,2.10
2023-05-07T11:24:11.412Z,2.85
2023-05-07T11:26:50.526Z,2.37
2023-05-07T11:29:22.883Z,2.40
2023-05-07T11:31:52.846Z,3.15
2023-05-07T11:34:25.011Z,2.57
2023-05-07T11:36:53.828Z,2.50
2023-05-07T11:39:39.711Z,2.77
2023-05-07T11:42:09.273Z,2.33
2023-05-07T11:44:44.972Z,1.73
2023-05-07T11:47:13.297Z,2.50
2023-05-07T11:49:42.679Z,2.70
2023-05-07T11:52:10.487Z,2.67
2023-05-07T11:54:39.769Z,2.50
2023-05-07T11:57:08.332Z,2.42
2023-05-07T11:59:41.132Z,2.57
2023-05-07T12:02:09.094Z,2.47
2023-05-07T12:04:36.944Z,2.70
2023-05-07T12:07:06.017Z,2.43
2023-05-07T12:09:35.119Z,2.22
2023-05-07T12:12:06.063Z,2.60
2023-05-07T12:14:34.567Z,2.40
2023-05-07T12:17:04.178Z,2.23
2023-05-07T12:19:32.642Z,1.97
2023-05-07T12:22:00.566Z,2.45
2023-05-07T12:24:30.480Z,2.10
2023-05-07T12:26:58.204Z,2.25
2023-05-07T12:29:26.868Z,1.97
2023-05-07T12:31:54.976Z,1.93
2023-05-07T12:34:24.137Z,2.38
2023-05-07T12:36:51.856Z,2.45
2023-05-07T12:39:19.871Z,2.00
2023-05-07T12:41:59.485Z,2.35
2023-05-07T12:44:31.166Z,2.08
2023-05-07T12:47:03.046Z,2.03
2023-05-07T12:49:31.135Z,2.38
2023-05-07T12:51:59.212Z,1.90
2023-05-07T12:54:31.288Z,2.10
2023-05-07T12:57:08.655Z,1.85
2023-05-07T12:59:38.166Z,1.77
2023-05-07T13:02:06.719Z,2.08
2023-05-07T13:04:35.061Z,2.10
2023-05-07T13:07:03.500Z,2.10
2023-05-07T13:09:31.286Z,1.67
2023-05-07T13:12:00.998Z,1.83
2023-05-07T13:14:30.203Z,2.20
2023-05-07T13:16:57.958Z,1.60
2023-05-07T13:19:25.809Z,2.10
2023-05-07T13:21:53.488Z,1.90
2023-05-07T13:24:21.511Z,3.53
2023-05-07T13:26:49.338Z,1.95
2023-05-07T13:29:17.278Z,3.20
2023-05-07T13:31:47.748Z,2.42
2023-05-07T13:34:16.508Z,4.40
2023-05-07T13:36:44.428Z,3.58
2023-05-07T13:39:12.197Z,2.60
2023-05-07T13:41:39.987Z,1.65
2023-05-07T13:44:07.763Z,3.08
2023-05-07T13:46:35.589Z,1.90
2023-05-07T13:49:04.862Z,1.95
2023-05-07T13:51:32.547Z,1.73
2023-05-07T13:54:00.503Z,1.73
2023-05-07T13:56:29.393Z,2.00
2023-05-07T13:59:00.628Z,1.52
2023-05-07T14:01:29.263Z,1.63
2023-05-07T14:03:57.999Z,1.58
2023-05-07T14:06:27.479Z,1.50
2023-05-07T14:08:55.270Z,1.73
2023-05-07T14:11:23.406Z,1.40
2023-05-07T14:13:51.360Z,1.63
2023-05-07T14:16:19.056Z,1.42
2023-05-07T14:18:46.760Z,1.38
2023-05-07T14:21:14.974Z,1.45
2023-05-07T14:23:44.090Z,1.30
2023-05-07T14:26:11.833Z,1.40
2023-05-07T14:28:40.399Z,1.27
2023-05-07T14:31:08.277Z,1.45
2023-05-07T14:33:36.092Z,1.40
2023-05-07T14:36:04.559Z,1.40
2023-05-07T14:38:33.800Z,1.40
2023-05-07T14:41:02.956Z,1.60
2023-05-07T14:43:30.945Z,1.40
2023-05-07T14:45:58.818Z,1.45
2023-05-07T14:48:26.571Z,1.30
2023-05-07T14:50:54.363Z,1.10
2023-05-07T14:53:23.602Z,1.30
2023-05-07T14:55:51.442Z,1.42
2023-05-07T14:58:20.648Z,1.35
2023-05-07T15:00:48.435Z,1.63
2023-05-07T15:03:16.500Z,1.00
2023-05-07T15:05:44.333Z,1.52
2023-05-07T15:08:12.034Z,1.40
2023-05-07T15:10:42.358Z,1.15
2023-05-07T15:13:14.489Z,1.38
2023-05-07T15:15:45.742Z,1.20
2023-05-07T15:18:13.781Z,1.40
2023-05-07T15:20:42.180Z,1.17
2023-05-07T15:23:13.154Z,1.50
2023-05-07T15:25:41.105Z,1.25
2023-05-07T15:28:09.563Z,1.38
2023-05-07T15:30:37.368Z,1.27
2023-05-07T15:33:06.828Z,1.17
2023-05-07T15:35:34.860Z,1.33
2023-05-07T15:38:03.941Z,1.23
2023-05-07T15:40:32.278Z,1.30
2023-05-07T15:43:00.021Z,1.33
2023-05-07T15:45:27.870Z,1.10
2023-05-07T15:47:55.724Z,1.20
2023-05-07T15:50:24.817Z,1.45
2023-05-07T15:52:52.640Z,1.50
2023-05-07T15:55:20.427Z,1.45
2023-05-07T15:57:48.467Z,1.17
2023-05-07T16:00:17.608Z,1.30
2023-05-07T16:02:45.462Z,0.98
2023-05-07T16:05:13.680Z,1.10
2023-05-07T16:07:44.191Z,1.50
2023-05-07T16:10:12.723Z,1.38
2023-05-07T16:12:40.498Z,1.52
2023-05-07T16:15:09.180Z,1.27
2023-05-07T16:17:36.988Z,1.33
2023-05-07T16:20:06.377Z,1.17
2023-05-07T16:22:34.130Z,1.20
2023-05-07T16:25:04.801Z,1.50
2023-05-07T16:27:32.470Z,1.70
2023-05-07T16:30:00.239Z,1.30
2023-05-07T16:32:28.351Z,1.25
2023-05-07T16:34:56.170Z,1.60
2023-05-07T16:37:23.932Z,1.25
2023-05-07T16:39:51.664Z,1.35
2023-05-07T16:42:20.713Z,1.40
2023-05-07T16:44:48.725Z,1.30
2023-05-07T16:47:16.427Z,1.38
2023-05-07T16:49:44.168Z,1.17
2023-05-07T16:52:11.914Z,1.27
2023-05-07T16:54:39.708Z,1.20
2023-05-07T16:57:07.480Z,1.15
2023-05-07T16:59:36.698Z,1.02
2023-05-07T17:02:04.674Z,1.30
2023-05-07T17:04:34.596Z,1.35
2023-05-07T17:07:04.460Z,1.20
2023-05-07T17:09:32.202Z,1.30
2023-05-07T17:12:00.151Z,1.30
2023-05-07T17:14:28.090Z,1.50
2023-05-07T17:17:04.565Z,1.48
2023-05-07T17:19:33.596Z,1.10
2023-05-07T17:22:01.615Z,1.52
2023-05-07T17:24:31.087Z,1.63
2023-05-07T17:26:58.887Z,1.35
2023-05-07T17:29:32.001Z,1.10
2023-05-07T17:32:01.501Z,1.55
2023-05-07T17:34:32.652Z,1.27
2023-05-07T17:37:07.816Z,1.27
2023-05-07T17:39:36.637Z,1.30
2023-05-07T17:42:05.983Z,1.50
2023-05-07T17:44:34.837Z,1.00
2023-05-07T17:47:04.415Z,1.20
2023-05-07T17:49:35.401Z,1.10
2023-05-07T17:52:04.394Z,1.30
2023-05-07T17:54:32.167Z,1.35
2023-05-07T17:57:04.224Z,1.27
2023-05-07T17:59:33.096Z,1.23
2023-05-07T18:02:00.862Z,1.33
2023-05-07T18:04:30.347Z,1.50
2023-05-07T18:06:58.890Z,1.33
2023-05-07T18:09:26.889Z,1.00
2023-05-07T18:11:54.973Z,1.23
2023-05-07T18:14:25.997Z,1.07
2023-05-07T18:16:55.329Z,1.40
2023-05-07T18:19:23.136Z,1.00
2023-05-07T18:21:55.523Z,1.27
2023-05-07T18:24:23.707Z,1.20
2023-05-07T18:26:51.675Z,0.97
2023-05-07T18:29:21.707Z,1.30
2023-05-07T18:31:49.880Z,1.47
2023-05-07T18:34:18.033Z,1.50
2023-05-07T18:36:46.118Z,1.50
2023-05-07T18:39:18.183Z,1.20
2023-05-07T18:41:48.846Z,1.17
2023-05-07T18:44:16.582Z,1.20
2023-05-07T18:46:48.232Z,1.20
2023-05-07T18:49:16.082Z,1.47
2023-05-07T18:51:46.536Z,1.40
2023-05-07T18:54:15.898Z,1.40
2023-05-07T18:56:43.918Z,1.10
2023-05-07T18:59:12.210Z,1.70
2023-05-07T19:01:39.973Z,1.10
2023-05-07T19:04:08.005Z,1.23
2023-05-07T19:06:35.872Z,1.47
2023-05-07T19:09:05.156Z,1.30
2023-05-07T19:11:36.411Z,1.77
2023-05-07T19:14:05.440Z,1.40
2023-05-07T19:16:36.184Z,1.57
2023-05-07T19:19:06.220Z,1.27
2023-05-07T19:21:38.137Z,1.57
2023-05-07T19:24:08.675Z,1.40
2023-05-07T19:26:39.608Z,1.90
2023-05-07T19:29:17.415Z,1.33
2023-05-07T19:31:46.558Z,1.57
2023-05-07T19:34:14.614Z,1.47
2023-05-07T19:36:42.975Z,1.40
2023-05-07T19:39:12.420Z,1.47
2023-05-07T19:41:42.994Z,1.40
2023-05-07T19:44:11.275Z,1.30
2023-05-07T19:46:40.538Z,1.40
2023-05-07T19:49:10.575Z,1.47
2023-05-07T19:51:40.299Z,1.60
2023-05-07T19:54:08.424Z,1.23
2023-05-07T19:56:36.258Z,1.63
2023-05-07T19:59:05.526Z,1.60
2023-05-07T20:01:33.614Z,1.30
2023-05-07T20:04:01.843Z,1.33
2023-05-07T20:06:29.914Z,1.30
2023-05-07T20:08:57.868Z,1.17
2023-05-07T20:11:25.706Z,1.67
2023-05-07T20:13:53.866Z,1.53
2023-05-07T20:16:24.994Z,1.80
2023-05-07T20:18:53.382Z,1.20
2023-05-07T20:21:21.707Z,1.50
2023-05-07T20:23:51.266Z,1.37
2023-05-07T20:26:19.745Z,1.20
2023-05-07T20:28:47.482Z,1.73
2023-05-07T20:31:16.068Z,1.47
2023-05-07T20:33:45.420Z,1.33
2023-05-07T20:36:15.235Z,1.50
2023-05-07T20:38:43.116Z,1.63
2023-05-07T20:41:14.180Z,1.80
2023-05-07T20:43:41.960Z,1.60
2023-05-07T20:46:09.736Z,1.83
2023-05-07T20:48:37.606Z,1.43
2023-05-07T20:51:06.694Z,1.57
2023-05-07T20:53:34.556Z,1.33
2023-05-07T20:56:02.623Z,1.60
2023-05-07T20:58:30.510Z,1.50
2023-05-07T21:00:58.372Z,1.60
2023-05-07T21:03:26.191Z,2.00
2023-05-07T21:05:55.586Z,1.30
2023-05-07T21:08:25.125Z,1.50
2023-05-07T21:10:54.267Z,1.40
2023-05-07T21:13:22.316Z,1.47
2023-05-07T21:15:50.436Z,1.57
2023-05-07T21:18:19.697Z,1.37
2023-05-07T21:20:47.438Z,1.40
2023-05-07T21:23:15.934Z,1.53
2023-05-07T21:25:47.202Z,1.47
2023-05-07T21:28:15.443Z,1.80
2023-05-07T21:30:43.266Z,1.47
2023-05-07T21:33:11.426Z,1.30
2023-05-07T21:35:39.267Z,1.87
2023-05-07T21:38:07.107Z,1.73
2023-05-07T21:40:34.802Z,1.50
2023-05-07T21:43:03.873Z,1.80
2023-05-07T21:45:31.599Z,1.47
2023-05-07T21:47:59.450Z,1.70
2023-05-07T21:50:27.259Z,1.53
2023-05-07T21:52:55.003Z,1.30
2023-05-07T21:55:22.978Z,1.30
2023-05-07T21:58:04.114Z,1.50
2023-05-07T22:00:34.447Z,1.13
2023-05-07T22:03:02.482Z,1.50
2023-05-07T22:05:30.515Z,1.87
2023-05-07T22:07:58.228Z,2.00
2023-05-07T22:10:25.944Z,1.33
2023-05-07T22:12:53.844Z,1.40
2023-05-07T22:15:21.759Z,1.43
2023-05-07T22:17:50.936Z,1.70
2023-05-07T22:20:18.970Z,1.53
2023-05-07T22:22:49.511Z,1.40
2023-05-07T22:25:20.237Z,2.13
2023-05-07T22:27:48.178Z,1.33
2023-05-07T22:30:16.146Z,1.20
2023-05-07T22:32:44.687Z,1.30
2023-05-07T22:35:13.858Z,1.43
2023-05-07T22:37:41.627Z,1.50
2023-05-07T22:40:10.365Z,1.50
2023-05-07T22:42:38.434Z,1.30
2023-05-07T22:45:07.043Z,1.30
2023-05-07T22:47:34.959Z,1.53
2023-05-07T22:50:05.120Z,1.70
2023-05-07T22:52:34.397Z,1.30
2023-05-07T22:55:02.193Z,1.50
2023-05-07T22:57:29.996Z,1.93
2023-05-07T22:59:58.157Z,2.17
2023-05-07T23:02:27.840Z,1.50
2023-05-07T23:04:55.780Z,1.40
2023-05-07T23:07:23.863Z,1.40
2023-05-07T23:09:52.854Z,1.67
2023-05-07T23:12:20.658Z,1.50
2023-05-07T23:14:48.359Z,1.57
2023-05-07T23:17:16.547Z,1.67
2023-05-07T23:19:44.680Z,1.50
2023-05-07T23:22:12.614Z,1.50
2023-05-07T23:24:40.561Z,1.43
2023-05-07T23:27:10.022Z,1.40
2023-05-07T23:29:37.848Z,1.90
2023-05-07T23:32:06.133Z,1.50
2023-05-07T23:34:34.059Z,1.60
2023-05-07T23:37:01.780Z,1.73
2023-05-07T23:39:29.667Z,1.20
2023-05-07T23:41:57.530Z,1.50
2023-05-07T23:44:26.629Z,1.30
2023-05-07T23:46:54.757Z,1.70
2023-05-07T23:49:22.542Z,1.77
2023-05-07T23:51:50.290Z,1.70
2023-05-07T23:54:18.489Z,1.37
2023-05-07T23:56:46.351Z,1.53
2023-05-07T23:59:14.063Z,1.30
